Tiempo atmosférico en la estación meteorológica de Lliria, València/Valencia (180 m.)



Fecha
DESCASC
Temp. máxima en grados centígrados (hora)
DESCASC
Temp. mínima en grados centígrados (hora)
DESCASC
Temp. media en grados centígrados
DESCASC
Racha de viento máxima en m/sg (hora)
DESCASC
Velocidad máxima media en intervalos de 10 minutos(hora)
DESCASC
Precipitaciones diarias en mm
DESCASC
Precipitaciones de 00:00 a 06:00 en mm
DESCASC
Precipitaciones de 06:00 a 12:00 en mm
DESCASC
Precipitaciones de 12:00 a 18:00 en mm
DESCASC
Precipitaciones de 18:00 a 24:00 en mm
DESCASC
22-04-2019 16 (16:10) 11.3 (00:30) 13.7 4.44 (00:40) 3.06 (00:50) 1.2 0 0.2 1 0
21-04-2019 15.9 (15:00) 11 (07:00) 13.4 10.28 (13:10) 5.28 (22:10) 0 0 0 0 0
20-04-2019 16.9 (10:10) 13.6 (13:50) 15.3 17.78 (10:10) 10 (11:40) 0.2 0 0 0.2 0
19-04-2019 15 (23:59) 11.4 (00:10) 13.2 16.94 (20:00) 8.06 (19:40) 29.2 22 5.4 0.2 1.6
18-04-2019 15.3 (17:50) 11 (00:00) 13.2 13.33 (18:10) 7.78 (18:10) 40 0 0 0 40
17-04-2019 20.4 (14:40) 7.8 (00:00) 14.1 9.72 (17:10) 6.11 (16:10) 0 0 0 0 0
16-04-2019 19.9 (15:50) 7.8 (00:00) 13.8 8.89 (14:10) 5.56 (14:10) 0 0 0 0 0
15-04-2019 21.8 (13:40) 9.9 (00:00) 15.8 10.83 (16:10) 6.94 (15:10) 0 0 0 0 0
14-04-2019 30.1 (16:20) 7.4 (00:00) 18.8 10 (09:40) 5.28 (09:40) 0 0 0 0 0
13-04-2019 23.7 (16:00) 6.9 (00:00) 15.3 8.33 (17:20) 5 (17:40) 0 0 0 0 0
12-04-2019 22.8 (17:10) 5.5 (07:00) 14.1 9.72 (19:10) 6.11 (17:40) 0 0 0 0 0
11-04-2019 21 (14:40) 6.2 (00:00) 13.6 9.72 (16:50) 5.83 (18:50) 0 0 0 0 0
10-04-2019 19.1 (13:20) 7.9 (00:00) 13.5 11.39 (14:50) 6.67 (10:00) 4.6 0 0 3.6 1
09-04-2019 19.8 (15:40) 9.3 (00:00) 14.5 15.83 (17:50) 10.28 (17:50) 0.8 0 0 0.6 0.2
08-04-2019 23.1 (16:40) 10.1 (00:00) 16.6 13.89 (16:20) 7.5 (18:20) 0 0 0 0 0
07-04-2019 18.6 (16:30) 5.9 (00:00) 12.3 13.33 (15:00) 7.22 (16:40) 0 0 0 0 0
06-04-2019 16 (14:30) 6.1 (00:00) 11 14.72 (23:50) 8.33 (02:30) 0.2 0 0 0.2 0
05-04-2019 18.7 (14:30) 5.9 (00:00) 12.3 15.28 (15:20) 9.72 (15:20) 1.2 0 0 1 0.2
04-04-2019 19.2 (17:20) 7.6 (00:00) 13.4 10.28 (18:10) 6.94 (18:10) 0 0 0 0 0
03-04-2019 22.9 (16:30) 6.6 (07:20) 14.7 12.5 (14:30) 7.5 (16:40) 0 0 0 0 0
02-04-2019 21.6 (13:40) 7.6 (00:00) 14.6 9.17 (16:20) 4.44 (14:40) 2.2 0 0 2.2 0
01-04-2019 15.9 (17:10) 10.3 (00:00) 13.1 4.17 (16:00) 2.5 (16:00) 5 3.6 1.4 0 0
31-03-2019 11.8 (18:10) 8.7 (00:00) 10.3 4.44 (23:00) 2.5 (07:10) 15.4 0 5.6 8.4 1.4
30-03-2019 17.7 (14:20) 4.8 (00:00) 11.3 9.72 (16:10) 5.83 (17:00) 0 0 0 0 0
29-03-2019 18.1 (14:00) 3.4 (00:00) 10.8 9.72 (13:40) 5.56 (14:30) 0 0 0 0 0
28-03-2019 19.7 (13:10) 3.7 (00:00) 11.7 9.72 (14:10) 5.56 (13:50) 0 0 0 0 0
27-03-2019 19.4 (13:40) 4.7 (00:00) 12 9.17 (13:20) 6.39 (14:30) 0 0 0 0 0
26-03-2019 19 (13:10) 7.1 (00:00) 13 11.94 (14:10) 7.5 (14:30) 0 0 0 0 0
25-03-2019 23.1 (12:30) 8.3 (00:00) 15.7 11.67 (13:10) 5.83 (14:10) 0 0 0 0 0

Gráficas

Temp. máximas Temp. mínimas Temp. medias Precipitaciones Rachas de viento máximas Velocidades máximas media en intervalos de 10 minutos

Datos horarios

Fecha y hora oficial Temperatura (ºC) Velocidad del viento (km/h) Dirección del viento Racha (km/h) Dirección de racha Precipitación (mm) Presión (hPa) Tendencia (hPa) Humedad (%)
2019-04-23 23:00:00 11.9 8 Oeste 28 Oeste 0 -- -- 60
2019-04-23 22:00:00 12.8 7 Noroeste 37 Oeste 0 -- -- 55
2019-04-23 21:00:00 15 23 Oeste 41 Oeste 0 -- -- 48
2019-04-23 20:00:00 17.2 17 Oeste 36 Oeste 0 -- -- 48
2019-04-23 19:00:00 16.3 10 Sudoeste 19 Sudoeste 0 -- -- 58
2019-04-23 18:00:00 15.5 6 Sudeste 11 Sudeste 0 -- -- 79
2019-04-23 17:00:00 15.1 0 Calma 10 Noroeste 0 -- -- 74
2019-04-23 16:00:00 13.8 6 Noroeste 40 Oeste 2 -- -- 84
2019-04-23 15:00:00 16.7 20 Oeste 44 Sudoeste 0 -- -- 57
2019-04-23 14:00:00 18.1 21 Oeste 32 Oeste 0 -- -- 53
2019-04-23 13:00:00 19.3 10 Sudoeste 26 Oeste 0 -- -- 54
2019-04-23 12:00:00 18.3 12 Oeste 27 Noroeste 0 -- -- 57
2019-04-23 11:00:00 16.6 15 Oeste 31 Oeste 0 -- -- 64
2019-04-23 10:00:00 14.8 11 Noroeste 19 Noroeste 0.2 -- -- 73
2019-04-23 09:00:00 12 6 Noroeste 15 Noroeste 0 -- -- 89
2019-04-23 08:00:00 9.5 5 Oeste 11 Oeste 0 -- -- 96
2019-04-23 07:00:00 8.5 2 Oeste 12 Oeste 0 -- -- 93
2019-04-23 06:00:00 9.2 6 Noroeste 12 Noroeste 0 -- -- 95
2019-04-23 05:00:00 8.8 7 Noroeste 9 Noroeste 0 -- -- 95
2019-04-23 04:00:00 8.8 7 Noroeste 10 Noroeste 0 -- -- 96
2019-04-23 03:00:00 9.4 0 Calma 10 Noroeste 0 -- -- 94
2019-04-23 02:00:00 10.3 4 Noroeste 10 Norte 0 -- -- 93
2019-04-23 01:00:00 11.3 3 Norte 10 Noroeste 0 -- -- 92
2019-04-23 00:00:00 12.2 7 Noroeste 9 Noroeste 0 -- -- 92
2019-04-22 23:00:00 12.9 3 Noroeste 8 Oeste 0 -- -- 89
2019-04-22 22:00:00 13 2 Norte 4 Noroeste 0 -- -- 90
2019-04-22 21:00:00 13.6 3 Noroeste 5 Noroeste 0 -- -- 87
2019-04-22 20:00:00 14.7 3 Oeste 4 Oeste 0 -- -- 85
2019-04-22 19:00:00 15 2 Sudeste 10 Sudeste 0 -- -- 78
2019-04-22 18:00:00 15.2 5 Sudeste 10 Sudeste 0 -- -- 76
2019-04-22 17:00:00 15.7 3 Sudeste 5 Sur 0 -- -- 78
2019-04-22 16:00:00 15.8 0 Calma 5 Norte 0 -- -- 74
2019-04-22 15:00:00 15.1 0 Calma 10 Noroeste 0.2 -- -- 79
2019-04-22 14:00:00 14 6 Noroeste 14 Oeste 0.6 -- -- 84
2019-04-22 13:00:00 14.3 6 Sudoeste 10 Oeste 0.2 -- -- 80
2019-04-22 12:00:00 14.2 0 Calma 15 Noroeste 0 -- -- 77
2019-04-22 11:00:00 13.4 5 Noroeste 15 Oeste 0.2 -- -- 80
2019-04-22 10:00:00 13 7 Oeste 13 Norte 0 -- -- 73
2019-04-22 09:00:00 12.1 6 Noroeste 12 Noroeste 0 -- -- 74
2019-04-22 08:00:00 11.7 7 Noroeste 13 Noroeste 0 -- -- 81
2019-04-22 07:00:00 11.8 2 Noroeste 10 Oeste 0 -- -- 80
2019-04-22 06:00:00 11.7 8 Oeste 13 Noroeste 0 -- -- 80
2019-04-22 05:00:00 12 6 Noroeste 10 Noroeste 0 -- -- 78
2019-04-22 04:00:00 12 4 Noroeste 13 Oeste 0 -- -- 79
2019-04-22 03:00:00 12.1 4 Noroeste 13 Noroeste 0 -- -- 79
2019-04-22 02:00:00 11.9 7 Noroeste 14 Noroeste 0 -- -- 81
2019-04-22 01:00:00 11.6 9 Noroeste 16 Noroeste 0 -- -- 85
2019-04-22 00:00:00 11.5 9 Oeste 18 Oeste 0 -- -- 88
2019-04-21 23:00:00 12.9 13 Nordeste 34 Nordeste 0 -- -- 78
2019-04-21 22:00:00 14.6 16 Nordeste 33 Nordeste 0 -- -- 58
2019-04-21 21:00:00 14.2 14 Nordeste 31 Nordeste 0 -- -- 62
2019-04-21 20:00:00 14.9 12 Nordeste 27 Norte 0 -- -- 57
2019-04-21 19:00:00 14.7 6 Norte 24 Nordeste 0 -- -- 57
2019-04-21 18:00:00 14.6 6 Nordeste 21 Nordeste 0 -- -- 60
2019-04-21 17:00:00 14.2 15 Nordeste 33 Nordeste 0 -- -- 65
2019-04-21 16:00:00 15 11 Nordeste 32 Nordeste 0 -- -- 59
2019-04-21 15:00:00 15.9 14 Nordeste 28 Este 0 -- -- 55
2019-04-21 14:00:00 14.8 13 Nordeste 37 Nordeste 0 -- -- 58
2019-04-21 13:00:00 13.9 11 Nordeste 21 Nordeste 0 -- -- 65
2019-04-21 12:00:00 13 13 Nordeste 27 Este 0 -- -- 71
2019-04-21 11:00:00 14.1 14 Nordeste 28 Nordeste 0 -- -- 61
2019-04-21 10:00:00 13.8 8 Nordeste 22 Norte 0 -- -- 61
2019-04-21 09:00:00 13.6 4 Nordeste 20 Nordeste 0 -- -- 61
2019-04-21 08:00:00 13.7 13 Nordeste 26 Nordeste 0 -- -- 60
2019-04-21 07:00:00 11 2 Noroeste 6 Norte 0 -- -- 82
2019-04-21 06:00:00 11.7 0 Calma 9 Este 0 -- -- 75
2019-04-21 05:00:00 12.5 3 Nordeste 19 Nordeste 0 -- -- 65
2019-04-21 04:00:00 13.2 13 Nordeste 26 Norte 0 -- -- 62
2019-04-21 03:00:00 13.1 10 Norte 28 Nordeste 0 -- -- 62
2019-04-21 02:00:00 13.8 15 Nordeste 30 Nordeste 0 -- -- 57
2019-04-21 01:00:00 14.1 17 Nordeste 36 Nordeste 0 -- -- 53
2019-04-21 00:00:00 14.2 13 Nordeste 37 Este 0 -- -- 54
2019-04-20 23:00:00 14.5 21 Nordeste 36 Nordeste 0 -- -- 53
2019-04-20 22:00:00 14 17 Nordeste 33 Nordeste 0 -- -- 56
2019-04-20 21:00:00 14.1 15 Nordeste 30 Nordeste 0 -- -- 56
2019-04-20 20:00:00 14.6 15 Nordeste 33 Nordeste 0 -- -- 55
2019-04-20 19:00:00 14.9 18 Nordeste 36 Nordeste 0 -- -- 55
2019-04-20 18:00:00 14.3 15 Nordeste 30 Nordeste 0 -- -- 61
2019-04-20 17:00:00 14.4 15 Nordeste 30 Nordeste 0 -- -- 62
2019-04-20 16:00:00 14.2 19 Nordeste 60 Nordeste 0 -- -- 64
2019-04-20 15:00:00 14.3 22 Nordeste 39 Nordeste 0 -- -- 64
2019-04-20 14:00:00 13.7 10 Este 46 Nordeste 0.2 -- -- 69
2019-04-20 13:00:00 15 26 Nordeste 62 Nordeste 0 -- -- 58
2019-04-20 12:00:00 16 36 Nordeste 64 Nordeste 0 -- -- 50
2019-04-20 11:00:00 16.6 22 Nordeste 64 Nordeste 0 -- -- 43
2019-04-20 10:00:00 16.8 27 Nordeste 55 Este 0 -- -- 42
2019-04-20 09:00:00 16.7 24 Nordeste 55 Nordeste 0 -- -- 47
2019-04-20 08:00:00 16.2 13 Nordeste 43 Nordeste 0 -- -- 54
2019-04-20 07:00:00 15.8 16 Nordeste 46 Nordeste 0 -- -- 53
2019-04-20 06:00:00 15.9 23 Nordeste 48 Nordeste 0 -- -- 53
2019-04-20 05:00:00 16.1 24 Nordeste 41 Nordeste 0 -- -- 51
2019-04-20 04:00:00 15.6 14 Nordeste 35 Nordeste 0 -- -- 56
2019-04-20 03:00:00 15.6 16 Nordeste 44 Este 0 -- -- 57
2019-04-20 02:00:00 15.4 17 Nordeste 39 Nordeste 0 -- -- 59
2019-04-20 01:00:00 15.2 15 Este 31 Este 0 -- -- 64
2019-04-20 00:00:00 15 18 Nordeste 44 Nordeste 0 -- -- 70
2019-04-19 23:00:00 14.3 14 Este 31 Este 0.2 -- -- 78
2019-04-19 22:00:00 13.6 17 Nordeste 39 Nordeste 0.4 -- -- 85
2019-04-19 21:00:00 13.7 18 Nordeste 42 Este 0.8 -- -- 85
2019-04-19 20:00:00 14 18 Este 61 Este 0 -- -- 80
2019-04-19 19:00:00 14 15 Este 43 Este 0.2 -- -- 82
2019-04-19 18:00:00 13.9 18 Este 39 Este 0 -- -- 84
2019-04-19 17:00:00 13.7 17 Este 31 Nordeste 0.2 -- -- 85
2019-04-19 16:00:00 14.2 16 Este 43 Este 0 -- -- 84
2019-04-19 15:00:00 14 20 Este 40 Este 0 -- -- 86
2019-04-19 14:00:00 14.4 23 Este 52 Este 0 -- -- 86
2019-04-19 13:00:00 14.3 26 Este 49 Este 0 -- -- 88
2019-04-19 12:00:00 13.3 10 Este 23 Sudeste 1 -- -- 97
2019-04-19 11:00:00 12.3 3 Oeste 10 Norte 2 -- -- 97
2019-04-19 10:00:00 12.5 2 Norte 10 Noroeste 0.8 -- -- 96
2019-04-19 09:00:00 12.4 5 Norte 11 Nordeste 1 -- -- 96
2019-04-19 08:00:00 12.4 8 Nordeste 10 Norte 0.6 -- -- 97
2019-04-19 07:00:00 12.4 3 Noroeste 7 Noroeste 0 -- -- 97
2019-04-19 06:00:00 12.4 4 Noroeste 6 Noroeste 0.6 -- -- 97
2019-04-19 05:00:00 12.4 0 Calma 15 Este 2.4 -- -- 97
2019-04-19 04:00:00 12.3 0 Calma 10 Sudoeste 5.2 -- -- 97
2019-04-19 03:00:00 12.4 8 Sudoeste 18 Sudeste 5.6 -- -- 97
2019-04-19 02:00:00 12.7 6 Sudeste 13 Sur 3.2 -- -- 96
2019-04-19 01:00:00 11.7 5 Norte 20 Oeste 5 -- -- 96
2019-04-19 00:00:00 11.5 3 Noroeste 41 Sudoeste 3.2 -- -- 96
2019-04-18 23:00:00 11.3 5 Nordeste 40 Norte 8.8 -- -- 96
2019-04-18 22:00:00 11 9 Noroeste 28 Noroeste 9 -- -- 94
2019-04-18 21:00:00 11.2 12 Noroeste 26 Norte 7.6 -- -- 92
2019-04-18 20:00:00 11 13 Noroeste 33 Oeste 11.4 -- -- 94
2019-04-18 19:00:00 15.2 11 Este 48 Este 0 -- -- 77
2019-04-18 18:00:00 15.3 23 Este 44 Nordeste 0 -- -- 75
2019-04-18 17:00:00 14.5 11 Nordeste 26 Este 0 -- -- 78
2019-04-18 16:00:00 14.2 14 Nordeste 26 Nordeste 0 -- -- 79
2019-04-18 15:00:00 15 13 Nordeste 35 Este 0 -- -- 73
2019-04-18 14:00:00 15.1 14 Este 33 Este 0 -- -- 71
2019-04-18 13:00:00 14.7 3 Este 11 Sudoeste 0 -- -- 72
2019-04-18 12:00:00 14.5 3 Sudoeste 14 Sudoeste 0 -- -- 73
2019-04-18 11:00:00 14.2 6 Oeste 15 Sudoeste 0 -- -- 75
2019-04-18 10:00:00 13.5 7 Sudoeste 13 Sudoeste 0 -- -- 77
2019-04-18 09:00:00 12.1 4 Noroeste 12 Sudoeste 0 -- -- 85
2019-04-18 08:00:00 11.4 2 Sudeste 22 Nordeste 0 -- -- 89
2019-04-18 07:00:00 11.3 0 Calma 5 Noroeste 0 -- -- 88
2019-04-18 06:00:00 11.9 4 Este 14 Sudoeste 0 -- -- 85
2019-04-18 05:00:00 11.7 8 Nordeste 14 Nordeste 0 -- -- 85
2019-04-18 04:00:00 11.4 2 Sudoeste 13 Oeste 0 -- -- 87
2019-04-18 03:00:00 11.2 4 Nordeste 13 Nordeste 0 -- -- 88
2019-04-18 02:00:00 11.5 4 Norte 8 Oeste 0 -- -- 88
2019-04-18 01:00:00 11.3 6 Oeste 9 Oeste 0 -- -- 90
2019-04-18 00:00:00 11.8 4 Oeste 9 Oeste 0 -- -- 89
2019-04-17 23:00:00 12.6 0 Calma 8 Este 0 -- -- 85
2019-04-17 22:00:00 13.3 8 Sudeste 20 Sudeste 0 -- -- 82
2019-04-17 21:00:00 13.7 9 Sudeste 25 Sudeste 0 -- -- 78
2019-04-17 20:00:00 14.6 15 Sudeste 30 Sudeste 0 -- -- 74
2019-04-17 19:00:00 15.9 18 Sudeste 31 Sudeste 0 -- -- 70
2019-04-17 18:00:00 17.4 22 Sudeste 35 Este 0 -- -- 63
2019-04-17 17:00:00 18.3 20 Sudeste 34 Sudeste 0 -- -- 59
2019-04-17 16:00:00 19.2 22 Sudeste 32 Sudeste 0 -- -- 54
2019-04-17 15:00:00 20.1 13 Sudeste 28 Sudeste 0 -- -- 50
2019-04-17 14:00:00 19.8 12 Sudeste 23 Sudeste 0 -- -- 51
2019-04-17 13:00:00 18.7 9 Este 24 Este 0 -- -- 51
2019-04-17 12:00:00 16.9 6 Nordeste 14 Este 0 -- -- 57
2019-04-17 11:00:00 15.7 2 Este 9 Sur 0 -- -- 62
2019-04-17 10:00:00 13.7 6 Sudoeste 10 Sur 0 -- -- 72
2019-04-17 09:00:00 12.8 5 Sudoeste 9 Norte 0 -- -- 74
2019-04-17 08:00:00 10.1 8 Norte 14 Norte 0 -- -- 83
2019-04-17 07:00:00 9.2 2 Noroeste 9 Noroeste 0 -- -- 90
2019-04-17 06:00:00 7.9 5 Noroeste 8 Noroeste 0 -- -- 94
2019-04-17 05:00:00 8.4 3 Norte 8 Norte 0 -- -- 91
2019-04-17 04:00:00 9.7 5 Norte 8 Norte 0 -- -- 90
2019-04-17 03:00:00 10.3 0 Calma 7 Sudoeste 0 -- -- 89
2019-04-17 02:00:00 12 2 Oeste 7 Noroeste 0 -- -- 89
2019-04-17 01:00:00 11.4 2 Noroeste 6 Noroeste 0 -- -- 90
2019-04-17 00:00:00 10.6 0 Calma 6 Sudoeste 0 -- -- 89
2019-04-16 23:00:00 11.9 0 Calma 8 Sur 0 -- -- 87
2019-04-16 22:00:00 13.1 6 Sur 19 Sudeste 0 -- -- 83
2019-04-16 21:00:00 14.2 9 Sudeste 25 Sudeste 0 -- -- 77
2019-04-16 20:00:00 16.4 14 Sudeste 30 Sudeste 0 -- -- 66
2019-04-16 19:00:00 18.3 17 Sudeste 27 Sudeste 0 -- -- 55
2019-04-16 18:00:00 19.6 14 Sudeste 26 Este 0 -- -- 54
2019-04-16 17:00:00 19.6 15 Sudeste 27 Sudeste 0 -- -- 54
2019-04-16 16:00:00 19.6 14 Sudeste 29 Sudeste 0 -- -- 53
2019-04-16 15:00:00 19.4 17 Sudeste 32 Sudeste 0 -- -- 57
2019-04-16 14:00:00 18.5 18 Sudeste 32 Sudeste 0 -- -- 60
2019-04-16 13:00:00 19.3 16 Sudeste 26 Sudeste 0 -- -- 58
2019-04-16 12:00:00 18.4 9 Sur 21 Sudeste 0 -- -- 59
2019-04-16 11:00:00 16.5 5 Sudoeste 12 Sudeste 0 -- -- 67
2019-04-16 10:00:00 15 5 Sudoeste 9 Oeste 0 -- -- 71
2019-04-16 09:00:00 11.9 6 Noroeste 11 Noroeste 0 -- -- 85
2019-04-16 08:00:00 7.9 4 Noroeste 8 Norte 0 -- -- 92
2019-04-16 07:00:00 8.1 3 Norte 9 Norte 0 -- -- 92
2019-04-16 06:00:00 8 5 Noroeste 9 Noroeste 0 -- -- 91
2019-04-16 05:00:00 9 4 Oeste 6 Noroeste 0 -- -- 90
2019-04-16 04:00:00 10.1 2 Norte 11 Noroeste 0 -- -- 87
2019-04-16 03:00:00 10.4 3 Norte 9 Este 0 -- -- 87
2019-04-16 02:00:00 10.9 4 Noroeste 10 Noroeste 0 -- -- 88
2019-04-16 01:00:00 10.9 5 Noroeste 10 Noroeste 0 -- -- 89
2019-04-16 00:00:00 11.5 5 Noroeste 9 Noroeste 0 -- -- 86
2019-04-15 23:00:00 11.8 4 Oeste 8 Sudoeste 0 -- -- 85
2019-04-15 22:00:00 13.2 6 Sudoeste 12 Sur 0 -- -- 80
2019-04-15 21:00:00 14.4 6 Sur 22 Sur 0 -- -- 73
2019-04-15 20:00:00 16.1 12 Sur 33 Sur 0 -- -- 64
2019-04-15 19:00:00 17.6 16 Sur 29 Sur 0 -- -- 58
2019-04-15 18:00:00 18.7 15 Sur 33 Sur 0 -- -- 55
2019-04-15 17:00:00 19.4 20 Sudeste 39 Sur 0 -- -- 52
2019-04-15 16:00:00 19.6 21 Sudeste 37 Sur 0 -- -- 51
2019-04-15 15:00:00 21.1 23 Sudeste 38 Sudeste 0 -- -- 46
2019-04-15 14:00:00 21.6 19 Sur 30 Sur 0 -- -- 46
2019-04-15 13:00:00 20.3 9 Sur 22 Sur 0 -- -- 51
2019-04-15 12:00:00 18.7 10 Sur 19 Sudeste 0 -- -- 60
2019-04-15 11:00:00 17.9 7 Sudeste 13 Sudeste 0 -- -- 62
2019-04-15 10:00:00 16.1 7 Sudoeste 11 Sudoeste 0 -- -- 71
2019-04-15 09:00:00 14.3 5 Noroeste 10 Oeste 0 -- -- 80
2019-04-15 08:00:00 12.9 5 Norte 9 Norte 0 -- -- 88
2019-04-15 07:00:00 12.3 2 Sudoeste 9 Oeste 0 -- -- 92
2019-04-15 06:00:00 9.9 5 Oeste 10 Noroeste 0 -- -- 91
2019-04-15 05:00:00 11.1 3 Norte 5 Norte 0 -- -- 84
2019-04-15 04:00:00 11.1 0 Calma 6 Norte 0 -- -- 84
2019-04-15 03:00:00 11.9 4 Nordeste 6 Nordeste 0 -- -- 81
2019-04-15 02:00:00 12.3 0 Calma 10 Oeste 0 -- -- 80
2019-04-15 01:00:00 12.7 5 Noroeste 8 Noroeste 0 -- -- 77
2019-04-15 00:00:00 14.7 2 Sudoeste 10 Sudoeste 0 -- -- 68
2019-04-14 23:00:00 16.1 4 Noroeste 6 Noroeste 0 -- -- 63
2019-04-14 22:00:00 19.5 0 Calma 10 Este 0 -- -- 53
2019-04-14 21:00:00 22.8 7 Sudeste 14 Sudeste 0 -- -- 39
2019-04-14 20:00:00 25.4 4 Este 24 Este 0 -- -- 35
2019-04-14 19:00:00 27.2 3 Este 11 Este 0 -- -- 33
2019-04-14 18:00:00 28.3 7 Este 15 Este 0 -- -- 27
2019-04-14 17:00:00 28.6 7 Sudeste 31 Nordeste 0 -- -- 25
2019-04-14 16:00:00 29.5 15 Sudoeste 30 Oeste 0 -- -- 24
2019-04-14 15:00:00 28.6 12 Sur 28 Sudoeste 0 -- -- 24
2019-04-14 14:00:00 27.6 12 Sudoeste 33 Noroeste 0 -- -- 26
2019-04-14 13:00:00 26.2 11 Noroeste 23 Noroeste 0 -- -- 26
2019-04-14 12:00:00 25.3 8 Oeste 19 Oeste 0 -- -- 27
2019-04-14 11:00:00 22.3 9 Oeste 26 Noroeste 0 -- -- 26
2019-04-14 10:00:00 19.3 14 Noroeste 36 Noroeste 0 -- -- 28
2019-04-14 09:00:00 15.4 2 Nordeste 22 Noroeste 0 -- -- 34
2019-04-14 08:00:00 11.9 10 Norte 16 Norte 0 -- -- 38
2019-04-14 07:00:00 9.6 4 Noroeste 14 Noroeste 0 -- -- 52
2019-04-14 06:00:00 8.7 5 Norte 14 Noroeste 0 -- -- 55
2019-04-14 05:00:00 9.6 8 Noroeste 14 Noroeste 0 -- -- 53
2019-04-14 04:00:00 9.4 13 Noroeste 17 Noroeste 0 -- -- 54
2019-04-14 03:00:00 7.4 8 Noroeste 13 Noroeste 0 -- -- 62
2019-04-14 02:00:00 9.4 6 Noroeste 12 Noroeste 0 -- -- 53
2019-04-14 01:00:00 8.9 4 Oeste 10 Noroeste 0 -- -- 59
2019-04-14 00:00:00 10.3 8 Noroeste 15 Noroeste 0 -- -- 54
2019-04-13 23:00:00 10.9 10 Noroeste 14 Noroeste 0 -- -- 59
2019-04-13 22:00:00 11.4 4 Noroeste 9 Noroeste 0 -- -- 67
2019-04-13 21:00:00 15.4 4 Nordeste 10 Este 0 -- -- 48
2019-04-13 20:00:00 19.2 8 Sudeste 20 Sudeste 0 -- -- 35
2019-04-13 19:00:00 20.8 14 Sudeste 26 Sudeste 0 -- -- 30
2019-04-13 18:00:00 22.2 15 Este 30 Sudeste 0 -- -- 28
2019-04-13 17:00:00 23.1 18 Sudeste 29 Sudeste 0 -- -- 28
2019-04-13 16:00:00 23.7 10 Sudeste 27 Sudeste 0 -- -- 25
2019-04-13 15:00:00 22.8 10 Este 26 Sur 0 -- -- 24
2019-04-13 14:00:00 21.9 6 Sudoeste 18 Sur 0 -- -- 24
2019-04-13 13:00:00 20.4 6 Sudeste 17 Sudoeste 0 -- -- 28
2019-04-13 12:00:00 19.1 5 Este 17 Sudeste 0 -- -- 32
2019-04-13 11:00:00 17.6 4 Sudoeste 10 Sur 0 -- -- 31
2019-04-13 10:00:00 14.9 7 Noroeste 13 Oeste 0 -- -- 38
2019-04-13 09:00:00 11.3 5 Noroeste 15 Oeste 0 -- -- 53
2019-04-13 08:00:00 7.2 3 Norte 15 Noroeste 0 -- -- 67
2019-04-13 07:00:00 7.8 10 Noroeste 16 Noroeste 0 -- -- 64
2019-04-13 06:00:00 7.2 8 Noroeste 13 Noroeste 0 -- -- 68
2019-04-13 05:00:00 8 6 Noroeste 10 Noroeste 0 -- -- 69
2019-04-13 04:00:00 8.3 7 Noroeste 14 Noroeste 0 -- -- 69
2019-04-13 03:00:00 8.4 10 Noroeste 15 Noroeste 0 -- -- 69
2019-04-13 02:00:00 7.9 6 Noroeste 11 Noroeste 0 -- -- 72
2019-04-13 01:00:00 8.5 5 Norte 10 Noroeste 0 -- -- 69
2019-04-13 00:00:00 9.7 6 Noroeste 14 Noroeste 0 -- -- 69
2019-04-12 23:00:00 9.5 6 Noroeste 10 Noroeste 0 -- -- 72
2019-04-12 22:00:00 10.7 5 Noroeste 8 Noroeste 0 -- -- 73
2019-04-12 21:00:00 14.5 3 Nordeste 16 Este 0 -- -- 55
2019-04-12 20:00:00 18 10 Este 35 Sudeste 0 -- -- 42
2019-04-12 19:00:00 19.5 16 Sudeste 31 Sudeste 0 -- -- 36
2019-04-12 18:00:00 20.6 20 Sudeste 34 Sudeste 0 -- -- 34
2019-04-12 17:00:00 22.6 9 Sudeste 22 Sur 0 -- -- 28
2019-04-12 16:00:00 22.1 7 Sur 19 Sur 0 -- -- 27
2019-04-12 15:00:00 21.6 9 Sudeste 15 Sur 0 -- -- 27
2019-04-12 14:00:00 20.6 7 Sudoeste 21 Sudoeste 0 -- -- 28
2019-04-12 13:00:00 19.7 11 Sur 17 Sur 0 -- -- 31
2019-04-12 12:00:00 18.5 7 Sur 13 Sur 0 -- -- 33
2019-04-12 11:00:00 16.9 7 Oeste 18 Oeste 0 -- -- 36
2019-04-12 10:00:00 14.2 10 Oeste 19 Oeste 0 -- -- 45
2019-04-12 09:00:00 10.4 10 Noroeste 15 Noroeste 0 -- -- 56
2019-04-12 08:00:00 6 9 Noroeste 18 Noroeste 0 -- -- 74
2019-04-12 07:00:00 5.5 11 Noroeste 14 Noroeste 0 -- -- 76
2019-04-12 06:00:00 5.8 5 Noroeste 10 Norte 0 -- -- 76
2019-04-12 05:00:00 9.1 7 Norte 15 Noroeste 0 -- -- 60
2019-04-12 04:00:00 9.7 7 Noroeste 17 Oeste 0 -- -- 61
2019-04-12 03:00:00 10.7 8 Sudoeste 18 Oeste 0 -- -- 56
2019-04-12 02:00:00 11.7 10 Oeste 20 Noroeste 0 -- -- 52
2019-04-12 01:00:00 12.4 9 Oeste 21 Oeste 0 -- -- 48
2019-04-12 00:00:00 11.9 8 Noroeste 20 Noroeste 0 -- -- 54
2019-04-11 23:00:00 12.7 12 Noroeste 22 Norte 0 -- -- 51
2019-04-11 22:00:00 11.5 5 Oeste 9 Sudoeste 0 -- -- 68
2019-04-11 21:00:00 13.9 2 Sudeste 19 Nordeste 0 -- -- 60
2019-04-11 20:00:00 18.4 14 Norte 33 Norte 0 -- -- 31
2019-04-11 19:00:00 19.6 17 Norte 33 Norte 0 -- -- 30
2019-04-11 18:00:00 20.1 19 Norte 33 Noroeste 0 -- -- 29
2019-04-11 17:00:00 20.2 17 Norte 35 Norte 0 -- -- 29
2019-04-11 16:00:00 20.8 13 Noroeste 28 Norte 0 -- -- 29
2019-04-11 15:00:00 19.6 5 Noroeste 22 Sudoeste 0 -- -- 33
2019-04-11 14:00:00 20.2 5 Sudoeste 21 Sudoeste 0 -- -- 33
2019-04-11 13:00:00 18.7 5 Norte 18 Sudoeste 0 -- -- 37
2019-04-11 12:00:00 17.8 8 Sur 19 Sudoeste 0 -- -- 36
2019-04-11 11:00:00 16.5 8 Sudoeste 14 Sudoeste 0 -- -- 39
2019-04-11 10:00:00 14.8 3 Sudeste 10 Oeste 0 -- -- 43
2019-04-11 09:00:00 10.7 6 Noroeste 16 Noroeste 0 -- -- 61
2019-04-11 08:00:00 6.4 8 Noroeste 13 Noroeste 0 -- -- 77
2019-04-11 07:00:00 6.9 6 Noroeste 12 Noroeste 0 -- -- 74
2019-04-11 06:00:00 6.7 10 Noroeste 12 Noroeste 0 -- -- 77
2019-04-11 05:00:00 6.7 7 Noroeste 10 Noroeste 0 -- -- 79
2019-04-11 04:00:00 8.6 8 Noroeste 15 Noroeste 0 -- -- 71
2019-04-11 03:00:00 9.8 10 Noroeste 18 Oeste 0 -- -- 68
2019-04-11 02:00:00 11.6 9 Sudoeste 21 Norte 0 -- -- 63
2019-04-11 01:00:00 10.7 5 Sudoeste 12 Sur 0 -- -- 70
2019-04-11 00:00:00 11.5 2 Norte 16 Oeste 0 -- -- 63
2019-04-10 23:00:00 10.9 3 Noroeste 18 Noroeste 0 -- -- 69
2019-04-10 22:00:00 11.3 10 Noroeste 25 Norte 0 -- -- 70
2019-04-10 21:00:00 11.6 8 Noroeste 15 Noroeste 0 -- -- 72
2019-04-10 20:00:00 11.9 9 Norte 18 Noroeste 0.2 -- -- 71
2019-04-10 19:00:00 12.5 5 Noroeste 24 Nordeste 0.8 -- -- 76
2019-04-10 18:00:00 13.3 8 Sur 25 Sudeste 1.4 -- -- 63
2019-04-10 17:00:00 15.8 5 Sudoeste 18 Nordeste 2.2 -- -- 64
2019-04-10 16:00:00 16.9 4 Este 35 Oeste 0 -- -- 40
2019-04-10 15:00:00 19.1 23 Oeste 41 Oeste 0 -- -- 34
2019-04-10 14:00:00 18.3 14 Noroeste 32 Oeste 0 -- -- 34
2019-04-10 13:00:00 17.8 11 Noroeste 28 Noroeste 0 -- -- 35
2019-04-10 12:00:00 16.9 20 Oeste 37 Noroeste 0 -- -- 39
2019-04-10 11:00:00 15.8 23 Oeste 38 Oeste 0 -- -- 44
2019-04-10 10:00:00 13.7 24 Oeste 39 Noroeste 0 -- -- 51
2019-04-10 09:00:00 12.1 19 Oeste 33 Oeste 0 -- -- 56
2019-04-10 08:00:00 8 4 Sudoeste 10 Oeste 0 -- -- 71
2019-04-10 07:00:00 9.4 3 Noroeste 25 Noroeste 0 -- -- 63
2019-04-10 06:00:00 9.4 11 Noroeste 19 Oeste 0 -- -- 64
2019-04-10 05:00:00 10.5 6 Norte 28 Oeste 0 -- -- 59
2019-04-10 04:00:00 10.9 13 Oeste 24 Noroeste 0 -- -- 58
2019-04-10 03:00:00 11.2 13 Oeste 34 Oeste 0 -- -- 58
2019-04-10 02:00:00 11.1 12 Oeste 21 Oeste 0 -- -- 59
2019-04-10 01:00:00 11.1 4 Noroeste 17 Oeste 0 -- -- 59
2019-04-10 00:00:00 11.1 10 Noroeste 37 Oeste 0 -- -- 59
2019-04-09 23:00:00 11.3 18 Oeste 31 Oeste 0 -- -- 56
2019-04-09 22:00:00 11.2 12 Oeste 19 Oeste 0 -- -- 60
2019-04-09 21:00:00 12.2 3 Oeste 18 Oeste 0 -- -- 65
2019-04-09 20:00:00 13.5 9 Oeste 17 Oeste 0.2 -- -- 65
2019-04-09 19:00:00 13 9 Oeste 24 Noroeste 0 -- -- 68
2019-04-09 18:00:00 11.4 25 Noroeste 57 Oeste 0.6 -- -- 77
2019-04-09 17:00:00 18.2 12 Oeste 41 Oeste 0 -- -- 38
2019-04-09 16:00:00 19.7 21 Noroeste 43 Oeste 0 -- -- 35
2019-04-09 15:00:00 18.9 28 Oeste 53 Noroeste 0 -- -- 35
2019-04-09 14:00:00 18.5 29 Oeste 46 Oeste 0 -- -- 35
2019-04-09 13:00:00 17.9 27 Oeste 54 Oeste 0 -- -- 38
2019-04-09 12:00:00 16.8 28 Oeste 49 Oeste 0 -- -- 38
2019-04-09 11:00:00 16.1 29 Oeste 48 Oeste 0 -- -- 41
2019-04-09 10:00:00 15 26 Oeste 37 Noroeste 0 -- -- 47
2019-04-09 09:00:00 13.2 13 Oeste 23 Oeste 0 -- -- 54
2019-04-09 08:00:00 10.8 6 Oeste 34 Oeste 0 -- -- 61
2019-04-09 07:00:00 11 14 Oeste 26 Noroeste 0 -- -- 60
2019-04-09 06:00:00 9.3 9 Noroeste 18 Oeste 0 -- -- 70
2019-04-09 05:00:00 10.1 12 Noroeste 15 Noroeste 0 -- -- 68
2019-04-09 04:00:00 12 9 Noroeste 18 Oeste 0 -- -- 64
2019-04-09 03:00:00 13.6 9 Oeste 23 Oeste 0 -- -- 62
2019-04-09 02:00:00 13.9 13 Oeste 23 Oeste 0 -- -- 64
2019-04-09 01:00:00 13.2 9 Noroeste 17 Oeste 0 -- -- 73
2019-04-09 00:00:00 14.1 3 Norte 22 Oeste 0 -- -- 67
2019-04-08 23:00:00 15.7 12 Oeste 24 Oeste 0 -- -- 61
2019-04-08 22:00:00 16.3 14 Oeste 32 Oeste 0 -- -- 59
2019-04-08 21:00:00 16.9 20 Oeste 42 Oeste 0 -- -- 55
2019-04-08 20:00:00 20.6 14 Oeste 35 Oeste 0 -- -- 40
2019-04-08 19:00:00 22.3 20 Oeste 43 Oeste 0 -- -- 33
2019-04-08 18:00:00 22.1 19 Noroeste 39 Noroeste 0 -- -- 35
2019-04-08 17:00:00 22.5 18 Noroeste 50 Noroeste 0 -- -- 41
2019-04-08 16:00:00 22.3 16 Oeste 36 Oeste 0 -- -- 39
2019-04-08 15:00:00 21.6 16 Oeste 28 Oeste 0 -- -- 41
2019-04-08 14:00:00 19.7 13 Oeste 37 Oeste 0 -- -- 46
2019-04-08 13:00:00 20.5 19 Oeste 37 Oeste 0 -- -- 47
2019-04-08 12:00:00 19.6 20 Oeste 34 Oeste 0 -- -- 47
2019-04-08 11:00:00 16.3 18 Oeste 32 Noroeste 0 -- -- 59
2019-04-08 10:00:00 14.7 10 Oeste 22 Oeste 0 -- -- 62
2019-04-08 09:00:00 12.8 5 Noroeste 24 Oeste 0 -- -- 69
2019-04-08 08:00:00 12.3 14 Oeste 27 Oeste 0 -- -- 69
2019-04-08 07:00:00 11.9 9 Oeste 22 Oeste 0 -- -- 66
2019-04-08 06:00:00 11.1 8 Oeste 14 Oeste 0 -- -- 65
2019-04-08 05:00:00 11.4 8 Oeste 12 Oeste 0 -- -- 62
2019-04-08 04:00:00 10.9 0 Calma 7 Noroeste 0 -- -- 71
2019-04-08 03:00:00 11.7 6 Oeste 10 Noroeste 0 -- -- 63
2019-04-08 02:00:00 12.8 8 Noroeste 30 Noroeste 0 -- -- 56
2019-04-08 01:00:00 13.9 16 Noroeste 26 Noroeste 0 -- -- 49
2019-04-08 00:00:00 14.3 8 Oeste 15 Noroeste 0 -- -- 44
2019-04-07 23:00:00 14.6 8 Oeste 15 Oeste 0 -- -- 40
2019-04-07 22:00:00 15.1 8 Oeste 23 Oeste 0 -- -- 40
2019-04-07 21:00:00 15.9 12 Oeste 22 Oeste 0 -- -- 35
2019-04-07 20:00:00 16.7 6 Noroeste 20 Noroeste 0 -- -- 35
2019-04-07 19:00:00 17.6 11 Noroeste 34 Noroeste 0 -- -- 32
2019-04-07 18:00:00 18.5 19 Noroeste 38 Noroeste 0 -- -- 28
2019-04-07 17:00:00 18.4 22 Noroeste 41 Noroeste 0 -- -- 28
2019-04-07 16:00:00 17.6 19 Noroeste 41 Noroeste 0 -- -- 30
2019-04-07 15:00:00 17.7 24 Oeste 48 Oeste 0 -- -- 32
2019-04-07 14:00:00 17.2 19 Oeste 43 Noroeste 0 -- -- 34
2019-04-07 13:00:00 15.9 17 Oeste 35 Noroeste 0 -- -- 39
2019-04-07 12:00:00 15.8 20 Noroeste 39 Noroeste 0 -- -- 38
2019-04-07 11:00:00 14.4 21 Noroeste 37 Oeste 0 -- -- 45
2019-04-07 10:00:00 12.6 16 Oeste 30 Oeste 0 -- -- 51
2019-04-07 09:00:00 10 11 Oeste 23 Oeste 0 -- -- 60
2019-04-07 08:00:00 8.7 15 Oeste 31 Oeste 0 -- -- 63
2019-04-07 07:00:00 6.1 4 Oeste 17 Norte 0 -- -- 75
2019-04-07 06:00:00 7.7 4 Noroeste 18 Noroeste 0 -- -- 68
2019-04-07 05:00:00 9.2 11 Noroeste 24 Noroeste 0 -- -- 60
2019-04-07 04:00:00 8.2 12 Oeste 19 Oeste 0 -- -- 66
2019-04-07 03:00:00 8.2 12 Oeste 26 Oeste 0 -- -- 69
2019-04-07 02:00:00 7.7 9 Oeste 22 Oeste 0 -- -- 70
2019-04-07 01:00:00 8.3 14 Oeste 23 Oeste 0 -- -- 69
2019-04-07 00:00:00 8.3 10 Noroeste 53 Noroeste 0 -- -- 75
2019-04-06 23:00:00 6.7 4 Noroeste 12 Noroeste 0 -- -- 86
2019-04-06 22:00:00 8 5 Noroeste 13 Nordeste 0 -- -- 80
2019-04-06 21:00:00 10 5 Norte 12 Sudoeste 0 -- -- 71
2019-04-06 20:00:00 12.4 6 Sudoeste 12 Sudoeste 0 -- -- 60
2019-04-06 19:00:00 10.9 6 Sudoeste 16 Sudoeste 0 -- -- 71
2019-04-06 18:00:00 10.6 10 Oeste 30 Oeste 0.2 -- -- 71
2019-04-06 17:00:00 13.5 21 Oeste 50 Sudoeste 0 -- -- 53
2019-04-06 16:00:00 15.3 22 Oeste 37 Oeste 0 -- -- 44
2019-04-06 15:00:00 13.4 18 Sudoeste 46 Sudoeste 0 -- -- 54
2019-04-06 14:00:00 14.8 16 Oeste 40 Oeste 0 -- -- 43
2019-04-06 13:00:00 14.7 19 Oeste 42 Sudoeste 0 -- -- 44
2019-04-06 12:00:00 12.9 17 Oeste 45 Noroeste 0 -- -- 46
2019-04-06 11:00:00 12.8 21 Oeste 40 Oeste 0 -- -- 46
2019-04-06 10:00:00 11.5 23 Noroeste 37 Oeste 0 -- -- 53
2019-04-06 09:00:00 9.7 21 Oeste 31 Oeste 0 -- -- 58
2019-04-06 08:00:00 6.2 9 Oeste 15 Sudoeste 0 -- -- 75
2019-04-06 07:00:00 6.6 9 Sudoeste 15 Oeste 0 -- -- 75
2019-04-06 06:00:00 6.6 6 Sudoeste 17 Sudoeste 0 -- -- 74
2019-04-06 05:00:00 8.1 10 Sudoeste 22 Oeste 0 -- -- 66
2019-04-06 04:00:00 8.6 11 Oeste 47 Noroeste 0 -- -- 64
2019-04-06 03:00:00 8.7 24 Oeste 45 Oeste 0 -- -- 63
2019-04-06 02:00:00 8.7 20 Oeste 40 Oeste 0 -- -- 64
2019-04-06 01:00:00 8.9 23 Oeste 40 Oeste 0 -- -- 62
2019-04-06 00:00:00 8.5 16 Oeste 29 Noroeste 0 -- -- 66
2019-04-05 23:00:00 8.5 5 Noroeste 22 Oeste 0 -- -- 71
2019-04-05 22:00:00 9.4 11 Oeste 30 Oeste 0 -- -- 68
2019-04-05 21:00:00 10.1 5 Oeste 18 Oeste 0 -- -- 73
2019-04-05 20:00:00 10.5 0 Calma 15 Sudeste 0 -- -- 84
2019-04-05 19:00:00 10.8 4 Sudeste 9 Este 0.2 -- -- 85
2019-04-05 18:00:00 11.1 4 Sudoeste 19 Oeste 0.6 -- -- 80
2019-04-05 17:00:00 11.6 10 Noroeste 25 Noroeste 0.2 -- -- 72
2019-04-05 16:00:00 10.1 18 Noroeste 55 Noroeste 0.2 -- -- 80
2019-04-05 15:00:00 16.3 19 Oeste 32 Oeste 0 -- -- 44
2019-04-05 14:00:00 17.1 12 Oeste 25 Oeste 0 -- -- 43
2019-04-05 13:00:00 15.5 6 Noroeste 20 Sudoeste 0 -- -- 45
2019-04-05 12:00:00 15.5 6 Noroeste 18 Oeste 0 -- -- 48
2019-04-05 11:00:00 14.9 8 Oeste 17 Este 0 -- -- 47
2019-04-05 10:00:00 13.4 8 Oeste 21 Sudoeste 0 -- -- 53
2019-04-05 09:00:00 9.3 3 Nordeste 9 Noroeste 0 -- -- 84
2019-04-05 08:00:00 6.2 0 Calma 10 Noroeste 0 -- -- 90
2019-04-05 07:00:00 6.4 0 Calma 10 Noroeste 0 -- -- 90
2019-04-05 06:00:00 6.7 6 Noroeste 11 Noroeste 0 -- -- 87
2019-04-05 05:00:00 6 6 Noroeste 8 Noroeste 0 -- -- 91
2019-04-05 04:00:00 7 2 Norte 9 Noroeste 0 -- -- 86
2019-04-05 03:00:00 7.5 5 Norte 6 Norte 0 -- -- 86
2019-04-05 02:00:00 7.4 3 Sudoeste 10 Noroeste 0 -- -- 89
2019-04-05 01:00:00 8.2 6 Noroeste 12 Noroeste 0 -- -- 84
2019-04-05 00:00:00 8 5 Noroeste 14 Norte 0 -- -- 85
2019-04-04 23:00:00 9.3 10 Norte 14 Nordeste 0 -- -- 79
2019-04-04 22:00:00 10.5 9 Nordeste 12 Nordeste 0 -- -- 80
2019-04-04 21:00:00 11.8 7 Nordeste 18 Este 0 -- -- 73
2019-04-04 20:00:00 13.8 12 Sudeste 28 Sudeste 0 -- -- 57
2019-04-04 19:00:00 15.4 17 Sudeste 37 Sudeste 0 -- -- 45
2019-04-04 18:00:00 17.1 21 Sudeste 37 Sudeste 0 -- -- 39
2019-04-04 17:00:00 19 10 Sur 21 Sur 0 -- -- 21
2019-04-04 16:00:00 18.8 8 Oeste 28 Sur 0 -- -- 21
2019-04-04 15:00:00 18.5 13 Oeste 26 Sudoeste 0 -- -- 21
2019-04-04 14:00:00 17.5 12 Sudoeste 22 Sudoeste 0 -- -- 24
2019-04-04 13:00:00 15.9 7 Sudoeste 19 Sudoeste 0 -- -- 25
2019-04-04 12:00:00 14.5 5 Sudeste 20 Oeste 0 -- -- 30
2019-04-04 11:00:00 13.3 12 Oeste 19 Noroeste 0 -- -- 36
2019-04-04 10:00:00 11.5 7 Noroeste 14 Noroeste 0 -- -- 40
2019-04-04 09:00:00 9.1 4 Norte 17 Noroeste 0 -- -- 54
2019-04-04 08:00:00 7.8 5 Noroeste 8 Noroeste 0 -- -- 72
2019-04-04 07:00:00 8.4 3 Noroeste 10 Oeste 0 -- -- 88
2019-04-04 06:00:00 8.9 3 Norte 5 Nordeste 0 -- -- 83
2019-04-04 05:00:00 8.6 0 Calma 13 Sudeste 0 -- -- 86
2019-04-04 04:00:00 9.1 4 Este 14 Sudoeste 0 -- -- 83
2019-04-04 03:00:00 10.2 10 Sudoeste 17 Sudoeste 0 -- -- 81
2019-04-04 02:00:00 11.1 11 Sur 19 Sur 0 -- -- 78
2019-04-04 01:00:00 11.7 7 Sur 17 Sur 0 -- -- 80
2019-04-04 00:00:00 12 10 Sur 21 Sur 0 -- -- 80
2019-04-03 23:00:00 12.7 12 Sudoeste 25 Sudoeste 0 -- -- 81
2019-04-03 22:00:00 13.5 17 Sudoeste 26 Sudoeste 0 -- -- 78
2019-04-03 21:00:00 16.1 14 Nordeste 30 Nordeste 0 -- -- 47
2019-04-03 20:00:00 19.8 9 Noroeste 22 Noroeste 0 -- -- 37
2019-04-03 19:00:00 21.7 14 Noroeste 39 Oeste 0 -- -- 31
2019-04-03 18:00:00 22.2 21 Oeste 44 Sudoeste 0 -- -- 30
2019-04-03 17:00:00 22.3 23 Oeste 41 Sudoeste 0 -- -- 30
2019-04-03 16:00:00 21.7 21 Oeste 40 Oeste 0 -- -- 35
2019-04-03 15:00:00 21.5 23 Oeste 45 Sudoeste 0 -- -- 37
2019-04-03 14:00:00 21.7 19 Oeste 35 Oeste 0 -- -- 40
2019-04-03 13:00:00 20.5 10 Sudoeste 21 Oeste 0 -- -- 46
2019-04-03 12:00:00 18.6 9 Sudoeste 19 Noroeste 0 -- -- 52
2019-04-03 11:00:00 15.9 10 Oeste 31 Oeste 0 -- -- 61
2019-04-03 10:00:00 15.3 17 Oeste 28 Oeste 0 -- -- 62
2019-04-03 09:00:00 12.2 10 Noroeste 24 Oeste 0 -- -- 73
2019-04-03 08:00:00 8.6 8 Noroeste 13 Oeste 0 -- -- 90
2019-04-03 07:00:00 7.1 3 Sudeste 9 Nordeste 0 -- -- 91
2019-04-03 06:00:00 7.7 4 Noroeste 7 Noroeste 0 -- -- 91
2019-04-03 05:00:00 8.3 0 Calma 8 Noroeste 0 -- -- 89
2019-04-03 04:00:00 9.6 4 Noroeste 21 Oeste 0 -- -- 85
2019-04-03 03:00:00 9.5 4 Noroeste 14 Noroeste 0 -- -- 89
2019-04-03 02:00:00 9.6 10 Noroeste 13 Noroeste 0 -- -- 91
2019-04-03 01:00:00 10.3 5 Noroeste 8 Noroeste 0 -- -- 93
2019-04-03 00:00:00 10.6 3 Norte 7 Norte 0 -- -- 93
2019-04-02 23:00:00 12.1 4 Nordeste 6 Nordeste 0 -- -- 91
2019-04-02 22:00:00 13.1 3 Sudeste 5 Noroeste 0 -- -- 90
2019-04-02 21:00:00 13.3 2 Sudoeste 5 Noroeste 0 -- -- 88
2019-04-02 20:00:00 15.2 4 Noroeste 8 Nordeste 0 -- -- 80
2019-04-02 19:00:00 17.4 5 Este 9 Este 0 -- -- 65
2019-04-02 18:00:00 16.7 4 Sudeste 9 Sudoeste 0.8 -- -- 69
2019-04-02 17:00:00 14.2 3 Norte 33 Oeste 1.2 -- -- 83
2019-04-02 16:00:00 18 9 Sudeste 20 Nordeste 0.2 -- -- 54
2019-04-02 15:00:00 17.8 15 Nordeste 29 Sudeste 0 -- -- 51
2019-04-02 14:00:00 20.8 7 Sur 17 Sur 0 -- -- 45
2019-04-02 13:00:00 21.1 9 Sudoeste 22 Sudoeste 0 -- -- 44
2019-04-02 12:00:00 20.3 6 Sudoeste 14 Sudoeste 0 -- -- 47
2019-04-02 11:00:00 18.1 8 Oeste 21 Noroeste 0 -- -- 52
2019-04-02 10:00:00 15.5 7 Noroeste 18 Oeste 0 -- -- 68
2019-04-02 09:00:00 10.9 0 Calma 11 Norte 0 -- -- 86
2019-04-02 08:00:00 8.7 5 Nordeste 8 Norte 0 -- -- 93
2019-04-02 07:00:00 9.5 0 Calma 8 Norte 0 -- -- 89
2019-04-02 06:00:00 8.3 4 Norte 13 Oeste 0 -- -- 95
2019-04-02 05:00:00 8 2 Noroeste 8 Oeste 0 -- -- 95
2019-04-02 04:00:00 8.4 2 Noroeste 6 Norte 0 -- -- 93
2019-04-02 03:00:00 9.3 3 Norte 8 Sudoeste 0 -- -- 94
2019-04-02 02:00:00 10.3 3 Norte 10 Noroeste 0 -- -- 93
2019-04-02 01:00:00 10.6 5 Noroeste 6 Noroeste 0 -- -- 93
2019-04-02 00:00:00 11 5 Norte 7 Norte 0 -- -- 89
2019-04-01 23:00:00 10.4 3 Norte 8 Norte 0 -- -- 91
2019-04-01 22:00:00 10.7 3 Nordeste 5 Norte 0 -- -- 91
2019-04-01 21:00:00 11.9 0 Calma 6 Sudoeste 0 -- -- 87
2019-04-01 20:00:00 14.1 5 Sudoeste 10 Sudoeste 0 -- -- 73
2019-04-01 19:00:00 14.6 7 Sudoeste 15 Sudoeste 0 -- -- 69
2019-04-01 18:00:00 15.4 7 Sudoeste 11 Sur 0 -- -- 66
2019-04-01 17:00:00 15.7 2 Sudoeste 10 Sudoeste 0 -- -- 67
2019-04-01 16:00:00 14.7 9 Sudoeste 15 Sudoeste 0 -- -- 72
2019-04-01 15:00:00 14.4 3 Sudeste 8 Sudeste 0 -- -- 62
2019-04-01 14:00:00 13.9 6 Sur 10 Sur 0 -- -- 69
2019-04-01 13:00:00 13.4 0 Calma 5 Norte 0 -- -- 80
2019-04-01 12:00:00 12.5 0 Calma 4 Oeste 0 -- -- 85
2019-04-01 11:00:00 11.5 2 Oeste 5 Sudoeste 0.2 -- -- 93
2019-04-01 10:00:00 11.2 2 Oeste 3 Oeste 0.2 -- -- 96
2019-04-01 09:00:00 11 0 Calma 5 Sudoeste 0.6 -- -- 96
2019-04-01 08:00:00 10.8 0 Calma 8 Noroeste 0.4 -- -- 96
2019-04-01 07:00:00 10.8 5 Noroeste 8 Noroeste 0 -- -- 95
2019-04-01 06:00:00 10.7 5 Noroeste 8 Noroeste 1 -- -- 95
2019-04-01 05:00:00 10.7 6 Noroeste 9 Noroeste 0.6 -- -- 95
2019-04-01 04:00:00 10.8 2 Noroeste 8 Noroeste 0.2 -- -- 94
2019-04-01 03:00:00 10.7 6 Noroeste 9 Noroeste 0 -- -- 94
2019-04-01 02:00:00 10.5 6 Noroeste 8 Noroeste 0.4 -- -- 94
2019-04-01 01:00:00 10.6 5 Oeste 8 Noroeste 1.4 -- -- 93
2019-04-01 00:00:00 11.1 0 Calma 13 Nordeste 0.2 -- -- 88
2019-03-31 23:00:00 11.7 9 Nordeste 16 Nordeste 0 -- -- 80
2019-03-31 22:00:00 11.5 0 Calma 9 Nordeste 0 -- -- 87
2019-03-31 21:00:00 11.3 0 Calma 6 Este 0.2 -- -- 91
2019-03-31 20:00:00 11.5 3 Sur 6 Oeste 0.2 -- -- 92
2019-03-31 19:00:00 11.7 2 Noroeste 8 Norte 0.8 -- -- 91
2019-03-31 18:00:00 11.7 2 Norte 9 Oeste 0.4 -- -- 87
2019-03-31 17:00:00 11.4 3 Noroeste 8 Noroeste 0.8 -- -- 90
2019-03-31 16:00:00 11.3 3 Noroeste 10 Nordeste 1.8 -- -- 90
2019-03-31 15:00:00 11.4 0 Calma 6 Sudoeste 1.6 -- -- 89
2019-03-31 14:00:00 11.1 0 Calma 10 Nordeste 1.6 -- -- 89
2019-03-31 13:00:00 10.6 0 Calma 8 Noroeste 2.2 -- -- 89
2019-03-31 12:00:00 10.1 6 Oeste 14 Norte 2 -- -- 91
2019-03-31 11:00:00 9.8 7 Norte 12 Norte 2 -- -- 85
2019-03-31 10:00:00 10 2 Noroeste 8 Noroeste 1 -- -- 90
2019-03-31 09:00:00 10.2 3 Norte 8 Oeste 0.6 -- -- 83
2019-03-31 08:00:00 10.8 4 Norte 14 Norte 0 -- -- 73
2019-03-31 07:00:00 10.5 8 Norte 14 Norte 0 -- -- 75
2019-03-31 06:00:00 9.8 5 Norte 8 Norte 0 -- -- 83
2019-03-31 05:00:00 10 0 Calma 5 Sudoeste 0 -- -- 83
2019-03-31 03:00:00 9.3 5 Norte 8 Norte 0 -- -- 82
2019-03-31 01:00:00 8.8 0 Calma 10 Norte 0 -- -- 83
2019-03-31 00:00:00 9.1 7 Norte 10 Norte 0 -- -- 82
2019-03-30 23:00:00 9.8 0 Calma 7 Sudoeste 0 -- -- 81
2019-03-30 22:00:00 10.5 0 Calma 4 Oeste 0 -- -- 78
2019-03-30 21:00:00 11.8 3 Sudoeste 13 Sudeste 0 -- -- 73
2019-03-30 20:00:00 12.3 9 Sudeste 22 Sudeste 0 -- -- 69
2019-03-30 19:00:00 13.2 13 Sudeste 26 Sudeste 0 -- -- 61
2019-03-30 18:00:00 15 17 Sudeste 30 Sur 0 -- -- 50
2019-03-30 17:00:00 16.1 21 Sudeste 35 Sudeste 0 -- -- 44
2019-03-30 16:00:00 17 15 Sudeste 30 Sudeste 0 -- -- 48
2019-03-30 15:00:00 17 16 Sudeste 31 Sudeste 0 -- -- 48
2019-03-30 14:00:00 17 12 Sudeste 26 Sur 0 -- -- 46
2019-03-30 13:00:00 17.2 14 Sur 25 Sudeste 0 -- -- 45
2019-03-30 12:00:00 16.5 12 Sudeste 26 Sudeste 0 -- -- 46
2019-03-30 11:00:00 15.4 10 Sudeste 19 Sudeste 0 -- -- 49
2019-03-30 10:00:00 13.9 2 Sur 9 Sur 0 -- -- 53
2019-03-30 09:00:00 11.4 4 Oeste 12 Noroeste 0 -- -- 55
2019-03-30 08:00:00 6.9 6 Noroeste 13 Noroeste 0 -- -- 75
2019-03-30 07:00:00 4.9 8 Noroeste 12 Noroeste 0 -- -- 81
2019-03-30 06:00:00 5.4 7 Noroeste 14 Noroeste 0 -- -- 79
2019-03-30 05:00:00 5 10 Noroeste 14 Noroeste 0 -- -- 80
2019-03-30 04:00:00 5.5 10 Noroeste 14 Noroeste 0 -- -- 80
2019-03-30 03:00:00 5.6 8 Noroeste 11 Noroeste 0 -- -- 83
2019-03-30 02:00:00 5.9 6 Noroeste 11 Noroeste 0 -- -- 85
2019-03-30 01:00:00 6 7 Noroeste 9 Noroeste 0 -- -- 85
2019-03-30 00:00:00 6.1 5 Noroeste 9 Noroeste 0 -- -- 86
2019-03-29 23:00:00 6.8 5 Noroeste 6 Noroeste 0 -- -- 85
2019-03-29 22:00:00 7.8 3 Noroeste 6 Norte 0 -- -- 81
2019-03-29 21:00:00 9.9 0 Calma 10 Sudeste 0 -- -- 78
2019-03-29 20:00:00 12.1 7 Sudeste 20 Sudeste 0 -- -- 69
2019-03-29 19:00:00 13.5 14 Sudeste 24 Sudeste 0 -- -- 59
2019-03-29 18:00:00 15.6 16 Sudeste 27 Sudeste 0 -- -- 41
2019-03-29 17:00:00 17.4 16 Sudeste 31 Sudeste 0 -- -- 36
2019-03-29 16:00:00 17.6 17 Sudeste 30 Sudeste 0 -- -- 37
2019-03-29 15:00:00 18.1 17 Sudeste 33 Sudeste 0 -- -- 35
2019-03-29 14:00:00 18.1 16 Sudeste 35 Sur 0 -- -- 36
2019-03-29 13:00:00 18 18 Sudeste 31 Sudeste 0 -- -- 34
2019-03-29 12:00:00 17.3 12 Sudeste 27 Sudeste 0 -- -- 34
2019-03-29 11:00:00 16 9 Sudeste 17 Sudeste 0 -- -- 36
2019-03-29 10:00:00 14.8 4 Sudeste 11 Sudeste 0 -- -- 34
2019-03-29 09:00:00 10.7 3 Noroeste 12 Noroeste 0 -- -- 39
2019-03-29 08:00:00 5.7 6 Noroeste 15 Noroeste 0 -- -- 52
2019-03-29 07:00:00 3.5 8 Noroeste 13 Noroeste 0 -- -- 56
2019-03-29 06:00:00 4 6 Noroeste 14 Noroeste 0 -- -- 52
2019-03-29 05:00:00 4.3 8 Noroeste 13 Noroeste 0 -- -- 58
2019-03-29 04:00:00 4.7 6 Noroeste 13 Noroeste 0 -- -- 65
2019-03-29 03:00:00 4.9 4 Noroeste 14 Noroeste 0 -- -- 67
2019-03-29 02:00:00 5.4 6 Noroeste 11 Noroeste 0 -- -- 73
2019-03-29 01:00:00 6.4 4 Noroeste 10 Noroeste 0 -- -- 68
2019-03-29 00:00:00 6.1 8 Noroeste 11 Noroeste 0 -- -- 76
2019-03-28 23:00:00 7.6 5 Noroeste 12 Noroeste 0 -- -- 74
2019-03-28 22:00:00 7.7 7 Noroeste 10 Noroeste 0 -- -- 81
2019-03-28 21:00:00 10.1 4 Nordeste 12 Sudeste 0 -- -- 74
2019-03-28 20:00:00 11.7 9 Este 14 Sudeste 0 -- -- 67
2019-03-28 19:00:00 14.1 11 Sudeste 25 Sudeste 0 -- -- 52
2019-03-28 18:00:00 16.3 13 Sudeste 28 Sudeste 0 -- -- 42
2019-03-28 17:00:00 17.4 17 Sudeste 32 Sudeste 0 -- -- 34
2019-03-28 16:00:00 18.1 19 Sudeste 32 Sudeste 0 -- -- 32
2019-03-28 15:00:00 18.9 18 Sudeste 35 Sudeste 0 -- -- 33
2019-03-28 14:00:00 19.3 18 Sudeste 32 Sudeste 0 -- -- 30
2019-03-28 13:00:00 19.5 17 Sudeste 27 Sudeste 0 -- -- 24
2019-03-28 12:00:00 19.1 14 Sur 23 Sudeste 0 -- -- 22
2019-03-28 11:00:00 18.2 6 Sudeste 17 Sudeste 0 -- -- 21
2019-03-28 10:00:00 15.7 4 Sudoeste 9 Noroeste 0 -- -- 24
2019-03-28 09:00:00 11.4 8 Noroeste 13 Noroeste 0 -- -- 37
2019-03-28 08:00:00 6.1 7 Noroeste 13 Noroeste 0 -- -- 53
2019-03-28 07:00:00 3.7 9 Noroeste 14 Noroeste 0 -- -- 55
2019-03-28 06:00:00 3.9 2 Noroeste 17 Noroeste 0 -- -- 59
2019-03-28 05:00:00 4.9 10 Noroeste 17 Noroeste 0 -- -- 54
2019-03-28 04:00:00 4.6 10 Noroeste 15 Noroeste 0 -- -- 59
2019-03-28 03:00:00 4.3 9 Noroeste 12 Noroeste 0 -- -- 63
2019-03-28 02:00:00 3.7 9 Oeste 11 Noroeste 0 -- -- 69
2019-03-28 01:00:00 5.5 2 Oeste 12 Noroeste 0 -- -- 64
2019-03-28 00:00:00 6.6 8 Noroeste 13 Noroeste 0 -- -- 64
2019-03-27 23:00:00 7.1 6 Noroeste 10 Noroeste 0 -- -- 64
2019-03-27 22:00:00 7.5 3 Norte 14 Noroeste 0 -- -- 69
2019-03-27 21:00:00 8.9 5 Norte 10 Sudeste 0 -- -- 63
2019-03-27 20:00:00 11.5 7 Sudeste 19 Sudeste 0 -- -- 52
2019-03-27 19:00:00 14.3 11 Sudeste 18 Este 0 -- -- 38
2019-03-27 18:00:00 16.2 12 Sudeste 30 Sudeste 0 -- -- 36
2019-03-27 17:00:00 17.1 18 Sudeste 31 Este 0 -- -- 31
2019-03-27 16:00:00 17.7 19 Sudeste 33 Sudeste 0 -- -- 32
2019-03-27 15:00:00 18.8 21 Sudeste 32 Sudeste 0 -- -- 29
2019-03-27 14:00:00 19.1 19 Sudeste 33 Sudeste 0 -- -- 27
2019-03-27 13:00:00 19.1 11 Sur 26 Sudeste 0 -- -- 27
2019-03-27 12:00:00 18.2 9 Sudeste 24 Este 0 -- -- 27
2019-03-27 11:00:00 17.2 6 Sur 11 Sudeste 0 -- -- 33
2019-03-27 10:00:00 15 4 Oeste 11 Sudoeste 0 -- -- 44
2019-03-27 09:00:00 11.9 5 Noroeste 8 Oeste 0 -- -- 55
2019-03-27 08:00:00 6.8 3 Noroeste 13 Noroeste 0 -- -- 76
2019-03-27 07:00:00 4.9 9 Noroeste 12 Noroeste 0 -- -- 83
2019-03-27 06:00:00 5.3 4 Noroeste 11 Noroeste 0 -- -- 82
2019-03-27 05:00:00 5.6 7 Noroeste 12 Noroeste 0 -- -- 82
2019-03-27 04:00:00 6.2 7 Noroeste 10 Noroeste 0 -- -- 84
2019-03-27 03:00:00 7.1 0 Calma 8 Oeste 0 -- -- 79
2019-03-27 02:00:00 9.5 7 Norte 10 Norte 0 -- -- 72
2019-03-27 01:00:00 10.2 7 Norte 10 Norte 0 -- -- 71
2019-03-27 00:00:00 11.1 2 Nordeste 13 Sudeste 0 -- -- 68
2019-03-26 23:00:00 11.4 3 Este 18 Sudeste 0 -- -- 68
2019-03-26 22:00:00 11.2 5 Este 14 Sudeste 0 -- -- 70
2019-03-26 21:00:00 11.3 8 Sudeste 26 Este 0 -- -- 70
2019-03-26 20:00:00 12.2 10 Sudeste 26 Este 0 -- -- 72
2019-03-26 19:00:00 13.5 16 Sudeste 26 Este 0 -- -- 68
2019-03-26 18:00:00 16.4 17 Sudeste 30 Sudeste 0 -- -- 47
2019-03-26 17:00:00 17.5 20 Sudeste 32 Sudeste 0 -- -- 42
2019-03-26 16:00:00 18 22 Sudeste 40 Sudeste 0 -- -- 45
2019-03-26 15:00:00 18.4 26 Sudeste 43 Sudeste 0 -- -- 46
2019-03-26 14:00:00 18.7 21 Sudeste 33 Sudeste 0 -- -- 44
2019-03-26 13:00:00 18.9 15 Sur 29 Sur 0 -- -- 34
2019-03-26 12:00:00 18.3 10 Sur 24 Sur 0 -- -- 34
2019-03-26 11:00:00 17 12 Sudeste 19 Sur 0 -- -- 34
2019-03-26 10:00:00 15.2 8 Sur 14 Sur 0 -- -- 39
2019-03-26 09:00:00 12.6 5 Este 10 Este 0 -- -- 47
2019-03-26 08:00:00 8.4 8 Noroeste 15 Noroeste 0 -- -- 58
2019-03-26 07:00:00 7.4 3 Norte 14 Noroeste 0 -- -- 58
2019-03-26 06:00:00 7.9 4 Norte 16 Noroeste 0 -- -- 56
2019-03-26 05:00:00 8 6 Noroeste 14 Noroeste 0 -- -- 57
2019-03-26 04:00:00 8.7 3 Norte 16 Noroeste 0 -- -- 54
2019-03-26 03:00:00 9 10 Noroeste 15 Oeste 0 -- -- 56
2019-03-26 02:00:00 8.6 8 Noroeste 14 Noroeste 0 -- -- 58
2019-03-26 01:00:00 8.5 9 Noroeste 13 Noroeste 0 -- -- 59
2019-03-26 00:00:00 9 9 Noroeste 12 Noroeste 0 -- -- 57
2019-03-25 23:00:00 9 6 Noroeste 9 Noroeste 0 -- -- 59
2019-03-25 22:00:00 9.5 5 Noroeste 9 Noroeste 0 -- -- 60
2019-03-25 21:00:00 11.3 3 Norte 6 Norte 0 -- -- 60
2019-03-25 20:00:00 13.8 3 Este 12 Sudeste 0 -- -- 49
2019-03-25 19:00:00 18.1 9 Sudeste 17 Sudeste 0 -- -- 35
2019-03-25 18:00:00 20.3 12 Sudeste 23 Sudeste 0 -- -- 30
2019-03-25 17:00:00 21.5 15 Sudeste 25 Sudeste 0 -- -- 29
2019-03-25 16:00:00 22.1 16 Sudeste 26 Sudeste 0 -- -- 27
2019-03-25 15:00:00 22.7 17 Sudeste 31 Sudeste 0 -- -- 25
2019-03-25 14:00:00 22.6 20 Sudeste 42 Sudeste 0 -- -- 27
2019-03-25 13:00:00 22.8 18 Sudeste 28 Sudeste 0 -- -- 27
2019-03-25 12:00:00 22.3 9 Sudeste 19 Sudeste 0 -- -- 27
2019-03-25 11:00:00 21.4 8 Sudeste 17 Sudeste 0 -- -- 26
2019-03-25 10:00:00 19.5 4 Sudoeste 18 Noroeste 0 -- -- 29
2019-03-25 09:00:00 14.6 11 Noroeste 21 Noroeste 0 -- -- 37
2019-03-25 08:00:00 10.7 13 Noroeste 20 Noroeste 0 -- -- 43
2019-03-25 07:00:00 8.5 10 Noroeste 19 Noroeste 0 -- -- 49
2019-03-25 06:00:00 9.1 14 Noroeste 20 Noroeste 0 -- -- 46
2019-03-25 05:00:00 8.3 9 Noroeste 19 Noroeste 0 -- -- 50
2019-03-25 04:00:00 8.7 13 Noroeste 23 Noroeste 0 -- -- 48
2019-03-25 03:00:00 9.2 12 Noroeste 18 Noroeste 0 -- -- 46
2019-03-25 02:00:00 9.6 10 Noroeste 17 Noroeste 0 -- -- 46
2019-03-25 01:00:00 9.9 8 Noroeste 17 Noroeste 0 -- -- 45
2019-03-25 00:00:00 9.9 10 Noroeste 14 Noroeste 0 -- -- 47